Time;durP1;ratioP1;P1;durP2;ratioP2;P2;SDS_P1;SDS_P2;PMS_P1;PMS_P2;Temp;Humidity;BMP_temperature;BMP_pressure;BME280_temperature;BME280_humidity;BME280_pressure;Samples;Min_cycle;Max_cycle;Signal;HPM_P1;HPM_P2
2022/07/10 00:00:28;;;;;;;8.38;2.03;;;13.20;99.90;;;;;;5047743;28;20057;-66
2022/07/10 00:02:54;;;;;;;7.10;1.73;;;13.30;99.90;;;;;;5064156;28;20048;-65
2022/07/10 00:05:21;;;;;;;7.47;1.52;;;13.30;99.90;;;;;;5063491;28;20099;-66
2022/07/10 00:07:47;;;;;;;9.05;2.55;;;13.30;99.90;;;;;;5063850;28;20076;-66
2022/07/10 00:10:13;;;;;;;5.28;1.73;;;13.30;99.90;;;;;;5064022;28;20073;-66
2022/07/10 00:12:39;;;;;;;7.32;1.70;;;13.20;99.90;;;;;;5063631;28;20345;-66
2022/07/10 00:15:05;;;;;;;9.90;2.45;;;13.20;99.90;;;;;;5064087;28;20040;-66
2022/07/10 00:17:32;;;;;;;10.00;1.77;;;13.20;99.90;;;;;;5063887;28;20049;-66
2022/07/10 00:19:58;;;;;;;11.35;2.33;;;13.10;99.90;;;;;;5064990;28;20045;-66
2022/07/10 00:22:23;;;;;;;9.30;2.47;;;13.00;99.90;;;;;;5046997;28;20154;-66
2022/07/10 00:24:52;;;;;;;7.15;2.40;;;12.80;99.90;;;;;;5062905;28;20512;-66
2022/07/10 00:27:18;;;;;;;8.82;2.00;;;12.80;99.90;;;;;;5046791;28;20057;-66
2022/07/10 00:29:44;;;;;;;6.20;1.80;;;12.80;99.90;;;;;;5065071;28;20044;-65
2022/07/10 00:32:10;;;;;;;9.63;2.22;;;12.90;99.90;;;;;;5063578;28;20055;-66
2022/07/10 00:34:36;;;;;;;8.20;2.05;;;12.90;99.90;;;;;;5065047;28;20037;-66
2022/07/10 00:37:03;;;;;;;8.50;1.67;;;12.80;99.90;;;;;;5046881;28;20072;-66
2022/07/10 00:39:28;;;;;;;7.43;1.83;;;12.70;99.90;;;;;;5063550;28;20424;-66
2022/07/10 00:41:54;;;;;;;9.07;1.83;;;12.70;99.90;;;;;;5064663;28;20037;-66
2022/07/10 00:44:20;;;;;;;11.52;2.13;;;12.70;99.90;;;;;;5060364;28;20570;-65
2022/07/10 00:46:46;;;;;;;8.73;1.83;;;12.70;99.90;;;;;;5059168;28;20043;-66
2022/07/10 00:49:11;;;;;;;10.07;2.40;;;12.70;99.90;;;;;;5063498;28;20048;-66
2022/07/10 00:51:38;;;;;;;8.82;1.70;;;12.70;99.90;;;;;;5097212;28;20049;-66
2022/07/10 00:54:05;;;;;;;7.63;2.20;;;12.70;99.90;;;;;;5046136;28;20048;-66
2022/07/10 00:56:31;;;;;;;11.82;1.85;;;12.60;99.90;;;;;;5061986;28;20036;-66
2022/07/10 00:58:57;;;;;;;7.10;2.03;;;12.60;99.90;;;;;;5062807;28;20053;-66
2022/07/10 01:01:24;;;;;;;10.90;3.20;;;12.50;99.90;;;;;;5062297;28;20052;-66
2022/07/10 01:03:50;;;;;;;8.93;1.80;;;12.50;99.90;;;;;;5062253;28;20064;-66
2022/07/10 01:06:16;;;;;;;9.10;1.65;;;12.50;99.90;;;;;;5063915;28;20045;-66
2022/07/10 01:08:43;;;;;;;11.10;2.08;;;12.40;99.90;;;;;;5062010;28;20041;-65
2022/07/10 01:11:10;;;;;;;8.68;2.03;;;12.40;99.90;;;;;;5045673;28;20504;-66
2022/07/10 01:13:36;;;;;;;8.82;1.90;;;12.50;99.90;;;;;;5063660;28;20076;-65
2022/07/10 01:16:02;;;;;;;10.20;2.47;;;12.40;99.90;;;;;;5061774;28;20053;-66
2022/07/10 01:18:28;;;;;;;8.85;1.67;;;12.40;99.90;;;;;;5063597;28;20073;-66
2022/07/10 01:20:55;;;;;;;6.88;1.77;;;12.40;99.90;;;;;;5062418;28;20053;-66
2022/07/10 01:23:21;;;;;;;9.98;1.80;;;12.50;99.90;;;;;;5096826;28;20045;-66
2022/07/10 01:25:48;;;;;;;16.63;2.35;;;12.50;99.90;;;;;;5096284;28;20057;-66
2022/07/10 01:28:15;;;;;;;12.40;2.13;;;12.60;99.90;;;;;;5067332;28;20062;-66
2022/07/10 01:30:41;;;;;;;5.18;1.77;;;12.60;99.90;;;;;;5068524;28;20040;-66
2022/07/10 01:33:07;;;;;;;10.45;2.00;;;12.70;99.90;;;;;;5068681;28;20045;-66
2022/07/10 01:35:32;;;;;;;11.32;2.35;;;12.70;99.90;;;;;;5066079;28;20041;-66
2022/07/10 01:37:58;;;;;;;16.48;2.60;;;12.70;99.90;;;;;;5066277;28;20053;-66
2022/07/10 01:40:24;;;;;;;9.15;2.05;;;12.70;99.90;;;;;;5067005;28;20037;-65
2022/07/10 01:42:49;;;;;;;8.57;1.67;;;12.60;99.90;;;;;;5067349;28;20044;-66
2022/07/10 01:45:16;;;;;;;8.63;2.35;;;12.60;99.90;;;;;;5065945;28;20045;-66
2022/07/10 01:47:43;;;;;;;13.07;2.28;;;12.60;99.90;;;;;;5066799;28;20048;-66
2022/07/10 01:50:09;;;;;;;10.77;2.20;;;12.70;99.90;;;;;;5067369;28;20060;-66
2022/07/10 01:52:35;;;;;;;10.25;2.38;;;12.60;99.90;;;;;;5061430;28;20049;-66
2022/07/10 01:55:02;;;;;;;11.30;2.63;;;12.60;99.90;;;;;;5065836;28;20036;-66
2022/07/10 01:57:27;;;;;;;8.93;2.17;;;12.60;99.90;;;;;;5067243;28;20057;-66
2022/07/10 01:59:53;;;;;;;12.40;2.55;;;12.60;99.90;;;;;;5065741;28;20068;-66
2022/07/10 02:02:19;;;;;;;11.68;2.50;;;12.60;99.90;;;;;;5067175;28;20052;-66
2022/07/10 02:04:45;;;;;;;7.50;1.65;;;12.60;99.90;;;;;;5099489;28;20545;-65
2022/07/10 02:07:14;;;;;;;8.85;1.90;;;12.60;99.90;;;;;;5066488;28;20489;-65
2022/07/10 02:09:41;;;;;;;8.48;1.90;;;12.70;99.90;;;;;;5067802;28;20071;-65
2022/07/10 02:12:11;;;;;;;10.43;2.17;;;12.70;99.90;;;;;;5065938;28;20075;-66
2022/07/10 02:14:37;;;;;;;10.93;2.47;;;12.70;99.90;;;;;;5048490;28;20045;-66
2022/07/10 02:17:04;;;;;;;9.65;1.73;;;12.80;99.90;;;;;;5066202;28;20083;-66
2022/07/10 02:19:30;;;;;;;5.97;2.00;;;12.80;99.90;;;;;;5065357;28;20079;-66
2022/07/10 02:21:56;;;;;;;6.00;1.50;;;12.70;99.90;;;;;;5098930;28;20040;-65
2022/07/10 02:24:22;;;;;;;10.55;2.65;;;12.70;99.90;;;;;;5065334;28;20072;-66
2022/07/10 02:26:48;;;;;;;14.32;2.20;;;12.70;99.90;;;;;;5060826;28;20056;-65
2022/07/10 02:29:14;;;;;;;11.05;2.10;;;12.80;99.90;;;;;;5099561;28;20041;-66
2022/07/10 02:31:40;;;;;;;8.80;1.88;;;12.70;99.90;;;;;;5065841;28;20083;-66
2022/07/10 02:34:10;;;;;;;14.10;2.63;;;12.70;99.90;;;;;;5066976;28;20040;-66
2022/07/10 02:36:38;;;;;;;;;;;12.60;99.90;;;;;;5096176;28;20068;-66
2022/07/10 02:39:05;;;;;;;7.35;2.00;;;12.50;99.90;;;;;;5058374;28;19927;-66
2022/07/10 02:41:32;;;;;;;10.40;1.95;;;12.40;99.90;;;;;;5051050;28;20049;-66
2022/07/10 02:43:57;;;;;;;9.70;2.03;;;12.40;99.90;;;;;;5050333;28;20041;-66
2022/07/10 02:46:23;;;;;;;9.77;1.85;;;12.30;99.90;;;;;;5049858;28;20041;-66
2022/07/10 02:48:49;;;;;;;9.93;2.17;;;12.30;99.90;;;;;;5052890;28;20045;-66
2022/07/10 02:51:15;;;;;;;10.45;1.65;;;12.30;99.90;;;;;;5050100;28;20047;-66
2022/07/10 02:53:40;;;;;;;8.02;1.80;;;12.30;99.90;;;;;;5045971;28;20053;-66
2022/07/10 02:56:06;;;;;;;8.40;1.92;;;12.30;99.90;;;;;;5050936;28;20049;-65
2022/07/10 02:58:33;;;;;;;6.88;1.90;;;12.30;99.90;;;;;;5048946;28;20072;-66
2022/07/10 03:00:59;;;;;;;7.78;2.33;;;12.30;99.90;;;;;;5081274;28;20057;-66
2022/07/10 03:03:25;;;;;;;6.78;1.83;;;12.30;99.90;;;;;;5047629;28;20038;-66
2022/07/10 03:05:51;;;;;;;9.23;1.88;;;12.30;99.90;;;;;;5056708;28;20053;-65
2022/07/10 03:08:16;;;;;;;8.25;2.33;;;12.40;99.90;;;;;;5044091;28;20053;-66
2022/07/10 03:10:42;;;;;;;11.90;1.90;;;12.40;99.90;;;;;;5097357;28;20044;-65
2022/07/10 03:13:08;;;;;;;8.63;2.13;;;12.40;99.90;;;;;;5063751;28;20049;-66
2022/07/10 03:15:34;;;;;;;5.78;1.73;;;12.40;99.90;;;;;;5064836;28;20071;-66
2022/07/10 03:18:00;;;;;;;7.78;1.80;;;12.40;99.90;;;;;;5064625;28;20105;-66
2022/07/10 03:20:25;;;;;;;8.05;1.48;;;12.40;99.90;;;;;;5065137;28;20091;-65
2022/07/10 03:22:51;;;;;;;11.48;1.92;;;12.40;99.90;;;;;;5064648;28;20057;-66
2022/07/10 03:25:17;;;;;;;11.90;1.92;;;12.40;99.90;;;;;;5066634;28;20045;-66
2022/07/10 03:27:43;;;;;;;10.15;1.80;;;12.60;99.90;;;;;;5062615;28;20057;-65
2022/07/10 03:30:09;;;;;;;10.30;1.60;;;12.50;99.90;;;;;;5054887;28;20152;-65
2022/07/10 03:32:35;;;;;;;9.93;1.85;;;12.50;99.90;;;;;;5097620;28;20076;-66
2022/07/10 03:35:01;;;;;;;12.48;2.42;;;12.50;99.90;;;;;;5064659;28;20106;-65
2022/07/10 03:37:27;;;;;;;11.18;2.53;;;12.50;99.90;;;;;;5064978;28;20040;-65
2022/07/10 03:39:53;;;;;;;10.02;1.77;;;12.50;99.90;;;;;;5063385;28;20424;-65
2022/07/10 03:42:18;;;;;;;11.30;2.60;;;12.50;99.90;;;;;;5046547;28;20048;-65
2022/07/10 03:44:44;;;;;;;17.15;3.17;;;12.60;99.90;;;;;;5064881;28;20045;-66
2022/07/10 03:47:10;;;;;;;9.68;1.95;;;12.60;99.90;;;;;;5097015;28;20052;-65
2022/07/10 03:49:38;;;;;;;8.90;1.50;;;12.70;99.90;;;;;;5062998;28;20048;-65
2022/07/10 03:52:04;;;;;;;8.25;1.38;;;12.70;99.90;;;;;;5098669;28;20055;-65
2022/07/10 03:54:30;;;;;;;8.23;1.50;;;12.70;99.90;;;;;;5064574;28;20051;-65
2022/07/10 03:59:41;;;;;;;12.25;2.03;;;12.80;99.90;;;;;;5062389;28;20056;-65
2022/07/10 04:02:07;;;;;;;9.75;1.70;;;12.80;99.90;;;;;;5065970;28;20053;-66
2022/07/10 04:04:33;;;;;;;8.90;2.15;;;12.80;99.90;;;;;;5063704;28;20048;-66
2022/07/10 04:06:58;;;;;;;6.45;1.67;;;12.90;99.90;;;;;;5064787;28;20045;-65
2022/07/10 04:09:24;;;;;;;9.85;2.13;;;12.90;99.90;;;;;;5063937;28;20542;-65
2022/07/10 04:11:50;;;;;;;8.10;1.95;;;13.00;99.90;;;;;;5062941;28;20496;-66
2022/07/10 04:14:16;;;;;;;12.25;2.10;;;13.00;99.90;;;;;;5064537;28;20041;-65
2022/07/10 04:16:41;;;;;;;6.55;1.27;;;13.00;99.90;;;;;;5096739;28;20086;-66
2022/07/10 04:19:07;;;;;;;13.00;1.88;;;13.00;99.90;;;;;;5064429;28;20059;-66
2022/07/10 04:21:33;;;;;;;10.70;1.88;;;13.00;99.90;;;;;;5062978;28;20072;-65
2022/07/10 04:23:58;;;;;;;7.32;1.60;;;13.00;99.90;;;;;;5062941;28;20118;-65
2022/07/10 04:26:24;;;;;;;10.82;1.77;;;13.00;99.90;;;;;;5062439;28;20497;-66
2022/07/10 04:28:50;;;;;;;6.80;2.03;;;13.10;99.90;;;;;;5096112;28;20459;-66
2022/07/10 04:31:16;;;;;;;10.20;1.50;;;13.10;99.90;;;;;;5062490;28;20045;-66
2022/07/10 04:33:41;;;;;;;13.60;2.47;;;13.10;99.90;;;;;;5062482;28;20041;-66
2022/07/10 04:36:07;;;;;;;6.35;1.80;;;13.10;99.90;;;;;;5062636;28;20077;-65
2022/07/10 04:38:33;;;;;;;5.18;1.50;;;13.10;99.90;;;;;;5062138;28;20084;-65
2022/07/10 04:40:59;;;;;;;10.82;1.90;;;13.10;99.90;;;;;;5062707;28;20360;-66
2022/07/10 04:43:24;;;;;;;6.90;1.70;;;13.20;99.90;;;;;;5097509;28;20045;-66
2022/07/10 04:45:50;;;;;;;9.93;1.65;;;13.20;99.90;;;;;;5065101;28;20068;-66
2022/07/10 04:48:16;;;;;;;8.30;1.83;;;13.20;99.90;;;;;;5061131;28;20041;-66
2022/07/10 04:50:42;;;;;;;8.20;2.53;;;13.30;99.90;;;;;;5064606;28;20092;-66
2022/07/10 04:53:08;;;;;;;7.10;1.90;;;13.30;99.90;;;;;;5064060;28;20054;-66
2022/07/10 04:55:33;;;;;;;7.65;1.73;;;13.40;99.90;;;;;;5063421;28;20041;-66
2022/07/10 04:57:59;;;;;;;9.68;1.80;;;13.40;99.90;;;;;;5063563;28;20052;-66
2022/07/10 05:00:25;;;;;;;8.88;2.38;;;13.50;99.90;;;;;;5062197;28;20041;-66
2022/07/10 05:02:51;;;;;;;10.57;1.90;;;13.50;99.90;;;;;;5062438;28;20063;-66
2022/07/10 05:05:16;;;;;;;11.77;2.72;;;13.50;99.90;;;;;;5062037;28;20041;-66
2022/07/10 05:07:42;;;;;;;7.13;1.80;;;13.60;99.90;;;;;;5064098;28;20041;-66
2022/07/10 05:10:08;;;;;;;9.95;1.65;;;13.60;99.90;;;;;;5063559;28;20041;-66
2022/07/10 05:12:34;;;;;;;7.22;1.60;;;13.60;99.90;;;;;;5058818;28;20439;-66
2022/07/10 05:15:00;;;;;;;7.78;1.70;;;13.60;99.90;;;;;;5062014;28;20084;-66
2022/07/10 05:17:28;;;;;;;10.48;1.90;;;13.70;99.90;;;;;;5058599;28;20567;-66
2022/07/10 05:19:55;;;;;;;11.68;1.90;;;13.70;99.90;;;;;;5064323;28;20041;-66
2022/07/10 05:22:22;;;;;;;7.80;1.58;;;13.80;99.90;;;;;;5066966;28;20049;-66
2022/07/10 05:24:48;;;;;;;9.30;1.90;;;13.90;99.90;;;;;;5063444;28;20057;-66
2022/07/10 05:27:13;;;;;;;9.73;1.58;;;14.00;99.90;;;;;;5060792;28;20056;-66
2022/07/10 05:29:39;;;;;;;7.60;1.75;;;14.10;99.90;;;;;;5061879;28;20045;-66
2022/07/10 05:32:05;;;;;;;12.80;2.28;;;14.20;99.90;;;;;;5061860;28;20037;-65
2022/07/10 05:34:31;;;;;;;7.10;1.70;;;14.10;99.90;;;;;;5062184;28;20114;-66
2022/07/10 05:36:56;;;;;;;10.95;2.30;;;14.20;99.90;;;;;;5062213;28;20151;-66
2022/07/10 05:39:25;;;;;;;8.48;1.30;;;14.20;99.90;;;;;;5042868;28;20049;-65
2022/07/10 05:41:52;;;;;;;8.07;1.67;;;14.10;99.90;;;;;;5062096;28;20085;-65
2022/07/10 05:44:19;;;;;;;6.80;1.70;;;14.20;99.90;;;;;;5063396;28;20049;-66
2022/07/10 05:46:46;;;;;;;8.75;1.80;;;14.30;99.90;;;;;;5095381;28;20943;-65
2022/07/10 05:49:12;;;;;;;8.02;2.03;;;14.30;99.90;;;;;;5061703;28;20057;-65
2022/07/10 05:51:37;;;;;;;13.90;2.10;;;14.40;99.90;;;;;;5063137;28;20055;-66
2022/07/10 05:54:04;;;;;;;5.63;1.70;;;14.40;99.90;;;;;;5043925;28;20041;-66
2022/07/10 05:56:30;;;;;;;10.50;1.65;;;14.40;99.90;;;;;;5062842;28;20075;-65
2022/07/10 05:58:56;;;;;;;5.38;1.77;;;14.40;99.90;;;;;;5063904;28;20116;-66
2022/07/10 06:01:23;;;;;;;10.20;1.88;;;14.50;99.90;;;;;;5095973;28;20033;-66
2022/07/10 06:03:49;;;;;;;7.63;1.83;;;14.50;99.90;;;;;;5064739;28;20271;-66
2022/07/10 06:06:15;;;;;;;11.45;2.20;;;14.50;99.90;;;;;;5061970;28;20064;-66
2022/07/10 06:08:41;;;;;;;8.43;1.95;;;14.50;99.90;;;;;;5062273;28;20041;-66
2022/07/10 06:11:07;;;;;;;10.60;1.40;;;14.50;99.90;;;;;;5062966;28;20501;-65
2022/07/10 06:13:33;;;;;;;9.27;2.15;;;14.60;99.90;;;;;;5064560;28;20052;-66
2022/07/10 06:15:58;;;;;;;6.43;1.98;;;14.60;99.90;;;;;;5067180;28;20381;-66
2022/07/10 06:18:24;;;;;;;8.38;1.65;;;14.60;99.90;;;;;;5067815;28;20115;-66
2022/07/10 06:20:50;;;;;;;7.15;1.83;;;14.70;99.90;;;;;;5067159;28;20044;-66
2022/07/10 06:23:15;;;;;;;11.55;2.17;;;14.70;99.90;;;;;;5066424;28;20045;-66
2022/07/10 06:25:41;;;;;;;9.13;1.95;;;14.70;99.90;;;;;;5064086;28;20108;-66
2022/07/10 06:28:07;;;;;;;9.65;2.25;;;14.80;99.90;;;;;;5064391;28;20052;-65
2022/07/10 06:30:32;;;;;;;11.77;2.25;;;14.80;99.90;;;;;;5064988;28;20128;-65
2022/07/10 06:32:58;;;;;;;8.88;2.10;;;14.80;99.90;;;;;;5064574;28;20040;-66
2022/07/10 06:35:24;;;;;;;8.45;2.78;;;14.90;99.90;;;;;;5065243;28;20063;-66
2022/07/10 06:37:49;;;;;;;6.90;1.80;;;14.90;99.90;;;;;;5064599;28;20045;-66
2022/07/10 06:40:16;;;;;;;11.68;2.42;;;14.90;99.90;;;;;;5066476;28;20059;-66
2022/07/10 06:42:42;;;;;;;7.88;2.08;;;15.10;99.90;;;;;;5098276;28;20056;-66
2022/07/10 06:45:08;;;;;;;12.93;2.17;;;15.00;99.90;;;;;;5064748;28;20053;-66
2022/07/10 06:50:19;;;;;;;10.13;1.65;;;15.00;99.90;;;;;;5065592;28;20152;-65
2022/07/10 06:52:45;;;;;;;8.40;2.08;;;15.00;99.90;;;;;;5059630;28;20052;-65
2022/07/10 06:55:10;;;;;;;11.13;2.20;;;15.10;99.90;;;;;;5065982;28;20053;-66
2022/07/10 06:57:38;;;;;;;11.68;2.35;;;15.10;99.90;;;;;;5064594;28;20041;-65
2022/07/10 07:00:05;;;;;;;12.57;1.90;;;15.20;99.90;;;;;;5065585;28;20044;-65
2022/07/10 07:02:30;;;;;;;12.13;2.50;;;15.10;99.90;;;;;;5064494;28;20532;-65
2022/07/10 07:04:56;;;;;;;12.07;3.17;;;15.10;99.90;;;;;;5063449;28;20044;-66
2022/07/10 07:07:22;;;;;;;7.47;2.10;;;15.00;99.90;;;;;;5063949;28;20563;-66
2022/07/10 07:09:50;;;;;;;7.32;2.30;;;15.00;99.90;;;;;;5064203;28;20037;-66
2022/07/10 07:12:17;;;;;;;14.32;2.35;;;15.00;99.90;;;;;;5065629;28;20048;-65
2022/07/10 07:14:43;;;;;;;10.15;2.35;;;15.00;99.90;;;;;;5098155;28;20059;-66
2022/07/10 07:17:11;;;;;;;9.07;1.98;;;15.10;99.90;;;;;;5063393;28;20064;-65
2022/07/10 07:25:09;;;;;;;8.73;2.30;;;15.00;99.90;;;;;;5059220;28;20139;-64
2022/07/10 07:27:36;;;;;;;8.57;1.98;;;15.00;99.90;;;;;;5063624;28;20053;-63
2022/07/10 07:30:07;;;;;;;8.77;2.15;;;15.00;99.90;;;;;;5057998;28;20128;-64
2022/07/10 07:32:33;;;;;;;13.15;2.30;;;15.10;99.90;;;;;;5063780;28;20106;-64
2022/07/10 07:34:59;;;;;;;15.63;3.47;;;15.10;99.90;;;;;;5046067;28;20033;-63
2022/07/10 07:37:54;;;;;;;13.02;2.38;;;15.10;99.90;;;;;;5096944;28;20048;-63
2022/07/10 07:40:23;;;;;;;8.80;2.28;;;15.20;99.90;;;;;;5049109;28;20061;-63
2022/07/10 07:42:53;;;;;;;10.13;2.25;;;15.20;99.90;;;;;;5065980;28;20052;-64
2022/07/10 07:45:19;;;;;;;12.52;2.67;;;15.30;99.90;;;;;;5065494;28;20103;-64
2022/07/10 07:47:47;;;;;;;9.10;2.25;;;15.50;99.90;;;;;;5065915;28;20127;-64
2022/07/10 07:50:19;;;;;;;9.65;2.15;;;15.50;99.90;;;;;;5065685;28;20150;-64
2022/07/10 07:52:45;;;;;;;6.90;1.63;;;15.70;99.90;;;;;;5095047;28;20049;-64
2022/07/10 07:55:12;;;;;;;7.97;2.45;;;15.80;99.90;;;;;;5062289;28;20045;-64
2022/07/10 07:57:38;;;;;;;10.40;1.90;;;15.90;99.90;;;;;;5065221;28;20068;-64
2022/07/10 08:00:07;;;;;;;9.50;1.83;;;16.10;99.90;;;;;;5065118;28;20501;-64
2022/07/10 08:02:33;;;;;;;9.15;2.40;;;16.30;99.90;;;;;;5093739;28;20044;-63
2022/07/10 08:04:59;;;;;;;7.40;1.67;;;16.40;99.90;;;;;;5062739;28;20075;-64
2022/07/10 08:07:37;;;;;;;9.05;2.15;;;16.50;99.90;;;;;;5063462;28;20049;-63
2022/07/10 08:10:04;;;;;;;7.18;1.85;;;16.60;99.90;;;;;;5061855;28;20041;-64
2022/07/10 08:12:30;;;;;;;7.90;2.13;;;16.60;99.90;;;;;;5056778;28;20055;-64
2022/07/10 08:14:56;;;;;;;5.00;1.58;;;16.40;99.90;;;;;;5063490;28;20079;-64
2022/07/10 08:17:22;;;;;;;6.18;1.95;;;16.40;99.90;;;;;;5053981;28;20049;-64
2022/07/10 08:19:47;;;;;;;7.60;1.80;;;16.30;99.90;;;;;;5062833;28;20064;-63
2022/07/10 08:22:13;;;;;;;6.25;1.20;;;16.20;99.90;;;;;;5065120;28;20047;-62
2022/07/10 08:24:39;;;;;;;5.85;1.33;;;16.20;99.90;;;;;;5062732;28;20060;-65
2022/07/10 08:27:06;;;;;;;6.75;1.20;;;16.10;99.90;;;;;;5052700;28;20050;-63
2022/07/10 08:29:32;;;;;;;6.03;1.40;;;16.10;99.90;;;;;;5048834;28;20045;-63
2022/07/10 08:31:57;;;;;;;6.95;1.73;;;16.10;99.90;;;;;;5048091;28;20049;-62
2022/07/10 08:34:23;;;;;;;3.20;1.25;;;16.20;99.90;;;;;;5029681;28;20037;-63
2022/07/10 08:36:49;;;;;;;7.85;1.40;;;16.30;99.90;;;;;;5048910;28;20048;-63
2022/07/10 08:39:16;;;;;;;5.50;1.40;;;16.50;99.90;;;;;;5003045;28;20103;-63
2022/07/10 08:41:42;;;;;;;4.57;1.63;;;16.50;99.90;;;;;;5018588;28;20123;-63
2022/07/10 08:44:08;;;;;;;5.88;1.15;;;16.50;99.90;;;;;;5030446;28;20095;-63
2022/07/10 08:46:35;;;;;;;5.10;1.30;;;16.50;99.90;;;;;;5021191;28;20041;-63
2022/07/10 08:49:08;;;;;;;3.03;1.20;;;16.50;99.90;;;;;;5030394;28;20069;-64
2022/07/10 08:51:41;;;;;;;5.18;1.13;;;16.50;99.90;;;;;;5034949;28;20048;-63
2022/07/10 08:54:08;;;;;;;6.75;1.50;;;16.50;99.90;;;;;;5026630;28;20285;-63
2022/07/10 08:56:34;;;;;;;7.97;1.40;;;16.50;99.90;;;;;;5055794;28;20088;-63
2022/07/10 08:59:03;;;;;;;6.43;1.40;;;16.40;99.90;;;;;;5064755;28;20037;-63
2022/07/10 09:01:30;;;;;;;4.83;1.23;;;16.50;99.90;;;;;;5049993;28;20142;-63
2022/07/10 09:03:55;;;;;;;6.55;1.77;;;16.50;99.90;;;;;;5059325;28;20044;-63
2022/07/10 09:06:21;;;;;;;4.93;1.38;;;16.60;99.90;;;;;;5046321;28;20084;-65
2022/07/10 09:09:05;;;;;;;5.80;1.67;;;16.60;99.90;;;;;;5043950;28;20139;-64
2022/07/10 09:11:33;;;;;;;3.60;1.00;;;16.50;99.90;;;;;;5037278;28;20119;-64
2022/07/10 09:14:08;;;;;;;5.20;1.20;;;16.50;99.90;;;;;;5034809;28;20047;-64
2022/07/10 09:16:39;;;;;;;3.95;1.33;;;16.50;99.90;;;;;;5028945;28;20074;-64
2022/07/10 09:19:21;;;;;;;5.03;1.85;;;16.50;99.90;;;;;;5041390;28;20041;-64
2022/07/10 09:21:51;;;;;;;4.00;1.65;;;16.60;99.90;;;;;;5013789;28;20828;-64
2022/07/10 09:24:19;;;;;;;4.45;1.45;;;16.60;99.90;;;;;;5025637;28;20041;-64
2022/07/10 09:27:08;;;;;;;3.25;1.23;;;16.70;99.90;;;;;;5034243;28;20050;-64
2022/07/10 09:29:46;;;;;;;3.80;1.10;;;16.80;99.90;;;;;;5027922;28;20067;-65
2022/07/10 09:32:12;;;;;;;4.05;1.50;;;16.80;99.90;;;;;;5014797;28;20098;-64
2022/07/10 09:34:39;;;;;;;2.75;1.23;;;16.80;99.90;;;;;;5073185;28;20104;-64
2022/07/10 09:37:20;;;;;;;8.65;1.60;;;16.80;99.90;;;;;;5049997;28;20044;-64
2022/07/10 09:39:55;;;;;;;4.38;1.30;;;16.70;99.90;;;;;;5048038;28;20266;-64
2022/07/10 09:42:38;;;;;;;4.93;1.75;;;16.70;99.90;;;;;;5038367;28;20064;-64
2022/07/10 09:45:10;;;;;;;4.20;1.17;;;16.70;99.90;;;;;;5047985;28;20037;-64
2022/07/10 09:47:36;;;;;;;4.07;1.10;;;16.70;99.90;;;;;;5042410;28;20536;-64
2022/07/10 09:50:03;;;;;;;6.40;1.23;;;16.70;99.90;;;;;;5043615;28;20493;-63
2022/07/10 09:52:28;;;;;;;4.68;1.23;;;16.70;99.90;;;;;;5043216;28;20120;-63
2022/07/10 09:54:56;;;;;;;6.43;1.33;;;16.80;99.90;;;;;;5031753;28;20052;-63
2022/07/10 09:57:25;;;;;;;4.93;1.20;;;16.80;99.90;;;;;;5060535;28;20049;-64
2022/07/10 09:59:51;;;;;;;5.23;1.17;;;16.90;99.90;;;;;;5039424;28;20053;-63
2022/07/10 10:02:18;;;;;;;4.32;1.02;;;16.90;99.90;;;;;;5024281;28;20053;-63
2022/07/10 10:04:44;;;;;;;6.97;1.40;;;16.70;99.90;;;;;;5044265;28;20060;-64
2022/07/10 10:07:12;;;;;;;3.17;1.25;;;16.70;99.90;;;;;;5025336;28;20336;-64
2022/07/10 10:09:45;;;;;;;7.50;1.50;;;16.70;99.90;;;;;;5042116;28;20588;-64
2022/07/10 10:12:35;;;;;;;5.43;1.73;;;16.60;99.90;;;;;;5008934;28;20089;-63
2022/07/10 10:15:01;;;;;;;;;;;16.60;99.90;;;;;;5037086;28;20084;-64
2022/07/10 10:17:28;;;;;;;4.13;1.38;;;16.60;99.90;;;;;;5019478;28;19929;-64
2022/07/10 10:22:42;;;;;;;4.47;1.38;;;16.40;99.90;;;;;;5044574;28;20087;-64
2022/07/10 10:25:09;;;;;;;2.13;1.13;;;16.40;99.90;;;;;;5061570;28;20670;-65
2022/07/10 10:27:35;;;;;;;3.25;1.05;;;16.40;99.90;;;;;;5037072;28;20053;-62
2022/07/10 10:30:02;;;;;;;4.35;1.20;;;16.40;99.90;;;;;;5053365;28;20402;-63
2022/07/10 10:32:28;;;;;;;1.67;1.15;;;16.40;99.90;;;;;;5051282;28;20045;-63
2022/07/10 10:34:57;;;;;;;1.90;1.08;;;16.40;99.90;;;;;;5074952;28;20051;-64
2022/07/10 10:37:38;;;;;;;2.47;1.30;;;16.50;99.90;;;;;;5054588;28;20427;-64
2022/07/10 10:40:05;;;;;;;3.90;1.20;;;16.50;99.90;;;;;;5067099;28;20063;-65
2022/07/10 10:42:43;;;;;;;1.35;1.02;;;16.40;99.90;;;;;;5061817;28;20048;-63
2022/07/10 10:45:31;;;;;;;1.30;1.05;;;16.40;99.90;;;;;;5052414;28;20041;-64
2022/07/10 10:47:57;;;;;;;3.65;1.38;;;16.40;99.90;;;;;;5040773;28;20053;-64
2022/07/10 10:50:38;;;;;;;2.40;1.40;;;16.50;99.90;;;;;;5050704;28;20463;-64
2022/07/10 10:53:05;;;;;;;5.22;2.05;;;16.50;99.90;;;;;;5052544;28;20048;-64
2022/07/10 10:55:31;;;;;;;1.58;1.00;;;16.40;99.90;;;;;;5081173;28;20055;-64
2022/07/10 10:58:17;;;;;;;2.35;0.98;;;16.30;99.90;;;;;;5057025;28;20175;-64
2022/07/10 11:00:43;;;;;;;4.18;1.52;;;16.30;99.90;;;;;;5066206;28;20825;-64
2022/07/10 11:03:14;;;;;;;2.72;1.00;;;16.20;99.90;;;;;;5045970;28;20128;-64
2022/07/10 11:05:44;;;;;;;3.35;1.35;;;16.20;99.90;;;;;;5051537;28;20087;-64
2022/07/10 11:08:11;;;;;;;1.98;1.15;;;16.00;99.90;;;;;;5036759;28;20112;-63
2022/07/10 11:10:43;;;;;;;3.70;1.30;;;16.00;99.90;;;;;;5044380;28;20075;-65
2022/07/10 11:13:16;;;;;;;2.08;1.33;;;16.10;99.90;;;;;;5036510;28;20249;-65
2022/07/10 11:15:47;;;;;;;3.40;1.27;;;16.40;99.90;;;;;;5067437;28;20040;-65
2022/07/10 11:18:18;;;;;;;3.97;1.52;;;16.40;99.90;;;;;;5060731;28;20072;-65
2022/07/10 11:20:46;;;;;;;5.40;1.75;;;16.40;99.90;;;;;;5076787;28;20056;-65
2022/07/10 11:23:35;;;;;;;5.93;1.85;;;16.40;99.90;;;;;;5051126;28;20127;-65
2022/07/10 11:26:11;;;;;;;3.25;2.05;;;16.30;99.90;;;;;;5059908;28;20121;-65
2022/07/10 11:28:59;;;;;;;7.00;2.17;;;16.30;99.90;;;;;;5043511;28;20045;-65
2022/07/10 11:31:26;;;;;;;6.00;2.42;;;16.30;99.90;;;;;;5025557;28;20296;-65
2022/07/10 11:33:54;;;;;;;8.75;2.78;;;16.20;99.90;;;;;;5034281;28;20041;-64
2022/07/10 11:36:33;;;;;;;8.70;2.88;;;16.30;99.90;;;;;;5042472;28;20116;-65
2022/07/10 11:39:04;;;;;;;8.98;2.90;;;16.20;99.90;;;;;;5030811;28;20192;-68
2022/07/10 11:41:30;;;;;;;6.28;2.50;;;16.30;99.90;;;;;;5067833;28;20048;-65
2022/07/10 11:43:58;;;;;;;5.55;2.83;;;16.30;99.90;;;;;;5072385;28;20044;-65
2022/07/10 11:46:28;;;;;;;6.25;2.28;;;16.40;99.90;;;;;;5051916;28;20056;-66
2022/07/10 11:48:56;;;;;;;4.15;2.60;;;16.50;99.90;;;;;;5068982;28;20059;-65
2022/07/10 11:51:24;;;;;;;8.35;3.17;;;16.40;99.90;;;;;;5061469;28;20178;-66
2022/07/10 11:54:05;;;;;;;5.47;2.70;;;16.50;99.90;;;;;;5036417;28;20200;-66
2022/07/10 11:56:36;;;;;;;10.30;2.97;;;16.60;99.90;;;;;;5041275;28;20044;-66
2022/07/10 11:59:07;;;;;;;6.85;3.10;;;16.70;99.90;;;;;;5061239;28;20049;-67
2022/07/10 12:01:35;;;;;;;10.10;2.80;;;16.90;99.90;;;;;;5050440;28;20292;-66
2022/07/10 12:04:06;;;;;;;9.80;3.30;;;17.10;99.90;;;;;;5059816;28;20044;-66
2022/07/10 12:06:37;;;;;;;6.95;2.22;;;17.30;99.90;;;;;;5049365;28;20095;-67
2022/07/10 12:09:23;;;;;;;5.78;2.53;;;17.50;99.90;;;;;;5083900;28;20044;-65
2022/07/10 12:12:03;;;;;;;7.40;2.55;;;17.60;99.90;;;;;;5046429;28;20113;-65
2022/07/10 12:14:29;;;;;;;5.05;2.33;;;17.60;99.90;;;;;;5051462;28;20048;-65
2022/07/10 12:16:57;;;;;;;8.85;2.95;;;17.60;99.90;;;;;;5051535;28;20094;-65
2022/07/10 12:19:23;;;;;;;6.75;2.65;;;17.60;99.90;;;;;;5043580;28;20158;-65
2022/07/10 12:21:49;;;;;;;9.85;3.25;;;17.50;99.90;;;;;;5045303;28;20056;-65
2022/07/10 12:24:17;;;;;;;7.32;2.95;;;17.20;99.90;;;;;;5058027;28;20044;-65
2022/07/10 12:26:43;;;;;;;8.45;2.60;;;17.20;99.90;;;;;;5039365;28;20052;-66
2022/07/10 12:29:29;;;;;;;6.93;2.88;;;17.20;99.90;;;;;;5035698;28;20057;-65
2022/07/10 12:32:03;;;;;;;9.50;2.75;;;17.30;99.90;;;;;;5061147;28;20059;-65
2022/07/10 12:34:40;;;;;;;4.30;2.40;;;17.40;99.90;;;;;;5041400;28;20048;-65
2022/07/10 12:37:11;;;;;;;5.72;2.17;;;17.60;99.90;;;;;;5025704;28;20057;-65
2022/07/10 12:39:45;;;;;;;6.90;2.10;;;17.60;99.90;;;;;;5013279;28;20061;-65
2022/07/10 12:42:11;;;;;;;3.35;1.88;;;17.70;99.90;;;;;;5044277;28;20051;-65
2022/07/10 12:44:48;;;;;;;3.67;2.03;;;17.60;99.90;;;;;;5056658;28;20100;-65
2022/07/10 12:47:19;;;;;;;3.80;2.00;;;17.40;99.90;;;;;;5044588;28;20061;-66
2022/07/10 12:50:04;;;;;;;4.05;1.70;;;17.40;99.90;;;;;;5042217;28;20449;-65
2022/07/10 12:52:40;;;;;;;4.68;2.13;;;17.20;99.90;;;;;;5030884;28;20116;-65
2022/07/10 12:55:21;;;;;;;5.30;2.33;;;17.20;99.90;;;;;;5044876;28;20105;-65
2022/07/10 12:57:50;;;;;;;4.55;1.90;;;17.10;99.90;;;;;;5030217;28;20060;-65
2022/07/10 13:00:21;;;;;;;6.90;2.13;;;16.90;99.90;;;;;;5053723;28;20039;-65
2022/07/10 13:02:50;;;;;;;3.42;2.00;;;17.00;99.90;;;;;;5025904;28;20052;-65